Time;durP1;ratioP1;P1;durP2;ratioP2;P2;SDS_P1;SDS_P2;PMS_P1;PMS_P2;Temp;Humidity;BMP_temperature;BMP_pressure;BME280_temperature;BME280_humidity;BME280_pressure;Samples;Min_cycle;Max_cycle;Signal;HPM_P1;HPM_P2
2020/12/31 00:01:26;;;;;;;174.32;85.60;;;;;;;3.23;87.37;97203.23;1776102;79;21165;-73
2020/12/31 00:03:53;;;;;;;233.85;119.87;;;;;;;3.19;86.93;97201.33;1776535;80;21483;-73
2020/12/31 00:06:19;;;;;;;248.40;120.75;;;;;;;3.16;86.68;97207.17;1776633;79;21147;-73
2020/12/31 00:08:45;;;;;;;237.17;116.25;;;;;;;3.13;86.86;97203.14;1776548;80;21221;-73
2020/12/31 00:11:12;;;;;;;228.47;114.15;;;;;;;3.14;86.82;97202.61;1776510;79;21038;-73
2020/12/31 00:13:39;;;;;;;239.80;121.10;;;;;;;3.17;87.08;97204.27;1776512;80;21043;-73
2020/12/31 00:16:05;;;;;;;244.65;116.82;;;;;;;3.18;87.31;97207.75;1776471;79;21169;-73
2020/12/31 00:18:31;;;;;;;234.90;118.55;;;;;;;3.20;87.25;97208.30;1776452;80;21206;-73
2020/12/31 00:20:58;;;;;;;248.05;130.85;;;;;;;3.17;86.90;97201.59;1776676;79;21126;-73
2020/12/31 00:23:24;;;;;;;260.23;133.78;;;;;;;3.21;87.13;97208.05;1776540;80;21646;-73
2020/12/31 00:25:52;;;;;;;259.02;135.30;;;;;;;3.29;87.28;97204.11;1776559;79;21067;-73
2020/12/31 00:28:19;;;;;;;250.65;130.50;;;;;;;3.32;87.08;97200.91;1776585;80;21114;-73
2020/12/31 00:30:45;;;;;;;237.23;120.28;;;;;;;3.30;86.68;97207.87;1776618;79;21118;-73
2020/12/31 00:33:13;;;;;;;263.70;132.52;;;;;;;3.18;86.35;97214.45;1776461;80;21641;-73
2020/12/31 00:35:40;;;;;;;290.50;137.77;;;;;;;3.10;86.46;97219.71;1776636;79;21099;-73
2020/12/31 00:38:06;;;;;;;328.70;157.18;;;;;;;3.07;86.37;97223.67;1776556;80;21178;-73
2020/12/31 00:40:33;;;;;;;299.05;150.22;;;;;;;3.02;86.41;97230.33;1776448;79;21444;-73
2020/12/31 00:43:03;;;;;;;309.52;152.27;;;;;;;3.04;86.52;97230.08;1776667;80;21122;-73
2020/12/31 00:45:29;;;;;;;293.20;139.25;;;;;;;3.02;86.51;97238.36;1776647;79;22136;-72
2020/12/31 00:47:55;;;;;;;283.65;133.93;;;;;;;3.00;87.43;97239.67;1776541;80;21206;-72
2020/12/31 00:50:24;;;;;;;257.05;132.32;;;;;;;3.02;86.98;97242.91;1776602;79;21198;-72
2020/12/31 00:52:50;;;;;;;;;;;;;;;3.00;87.40;97238.34;1779260;80;21131;-73
2020/12/31 00:55:17;;;;;;;293.75;132.72;;;;;;;2.92;87.33;97237.44;1776637;79;20218;-73
2020/12/31 00:57:43;;;;;;;314.00;136.65;;;;;;;2.94;87.48;97236.66;1776518;80;21189;-73
2020/12/31 01:00:11;;;;;;;330.95;143.15;;;;;;;2.91;87.38;97235.83;1776317;79;21473;-73
2020/12/31 01:02:38;;;;;;;331.10;156.85;;;;;;;2.92;87.57;97230.22;1776642;80;21154;-73
2020/12/31 01:05:08;;;;;;;332.00;153.25;;;;;;;2.90;87.66;97232.31;1776593;79;21142;-73
2020/12/31 01:07:35;;;;;;;325.90;157.72;;;;;;;2.84;87.66;97231.98;1775979;80;21107;-73
2020/12/31 01:10:01;;;;;;;319.57;145.92;;;;;;;2.82;88.05;97232.25;1776415;79;21243;-73
2020/12/31 01:12:29;;;;;;;282.55;129.70;;;;;;;2.85;88.56;97231.46;1776477;80;21618;-73
2020/12/31 01:14:55;;;;;;;284.30;135.90;;;;;;;2.79;88.21;97230.58;1776560;80;21162;-73
2020/12/31 01:17:25;;;;;;;297.82;139.80;;;;;;;2.75;88.08;97227.60;1776572;79;21185;-73
2020/12/31 01:19:52;;;;;;;277.73;133.57;;;;;;;2.78;88.12;97231.64;1776470;80;21452;-73
2020/12/31 01:22:18;;;;;;;261.82;122.62;;;;;;;2.81;87.76;97229.80;1776600;79;21924;-73
2020/12/31 01:24:45;;;;;;;253.05;125.80;;;;;;;2.80;87.65;97231.66;1776532;80;21080;-73
2020/12/31 01:27:13;;;;;;;277.98;128.87;;;;;;;2.83;87.47;97227.70;1776468;79;21476;-73
2020/12/31 01:29:39;;;;;;;255.20;125.62;;;;;;;2.83;87.43;97224.50;1776553;80;21131;-73
2020/12/31 01:32:05;;;;;;;253.00;118.40;;;;;;;2.87;87.57;97237.36;1776498;79;21177;-73
2020/12/31 01:34:33;;;;;;;222.15;107.52;;;;;;;2.92;87.48;97236.10;1746136;80;21559;-73
2020/12/31 01:36:59;;;;;;;243.05;114.67;;;;;;;2.94;87.41;97244.16;1746662;80;21118;-73
2020/12/31 01:39:26;;;;;;;268.90;122.55;;;;;;;2.95;87.36;97247.64;1776466;80;21139;-73
2020/12/31 01:41:52;;;;;;;257.07;121.92;;;;;;;2.94;87.45;97254.86;1776501;79;21444;-73
2020/12/31 01:44:18;;;;;;;270.93;122.75;;;;;;;2.89;87.73;97257.98;1776449;80;21528;-73
2020/12/31 01:46:46;;;;;;;268.82;128.12;;;;;;;2.89;87.62;97261.47;1776676;79;21468;-73
2020/12/31 01:49:16;;;;;;;297.30;128.87;;;;;;;2.84;87.57;97260.09;1776556;80;21066;-73
2020/12/31 01:51:45;;;;;;;292.73;136.60;;;;;;;2.80;88.19;97263.77;1776735;79;21098;-73
2020/12/31 01:54:12;;;;;;;308.40;133.65;;;;;;;2.76;89.33;97273.37;1776742;80;21047;-73
2020/12/31 01:56:38;;;;;;;274.62;126.97;;;;;;;2.77;89.53;97280.33;1776676;79;21119;-73
2020/12/31 01:59:04;;;;;;;231.53;109.30;;;;;;;2.79;88.96;97280.08;1776585;80;21199;-73
2020/12/31 02:01:31;;;;;;;223.70;114.08;;;;;;;2.80;88.90;97277.68;1776649;79;21052;-73
2020/12/31 02:03:58;;;;;;;209.92;103.10;;;;;;;2.82;88.59;97272.38;1776579;80;21338;-73
2020/12/31 02:06:26;;;;;;;204.40;102.67;;;;;;;2.88;88.42;97269.75;1776657;79;21444;-74
2020/12/31 02:08:53;;;;;;;196.28;100.07;;;;;;;2.89;88.29;97268.69;1776726;80;21090;-73
2020/12/31 02:11:21;;;;;;;183.72;90.40;;;;;;;2.90;88.49;97275.13;1776642;79;21565;-73
2020/12/31 02:13:47;;;;;;;169.90;87.00;;;;;;;2.95;88.26;97275.20;1776585;80;21134;-73
2020/12/31 02:16:14;;;;;;;184.03;88.87;;;;;;;2.99;88.08;97269.66;1776635;79;21071;-73
2020/12/31 02:18:53;;;;;;;161.47;82.53;;;;;;;2.98;88.42;97274.70;1776599;80;21559;-73
2020/12/31 02:21:24;;;;;;;152.38;78.45;;;;;;;3.03;88.30;97273.44;1776817;79;21082;-73
2020/12/31 02:23:51;;;;;;;151.07;71.55;;;;;;;3.03;88.31;97272.63;1776249;80;21204;-73
2020/12/31 02:26:18;;;;;;;139.30;66.77;;;;;;;3.04;87.98;97273.70;1746461;80;21567;-73
2020/12/31 02:28:44;;;;;;;145.57;71.17;;;;;;;2.95;87.70;97270.38;1776635;80;21146;-73
2020/12/31 02:31:11;;;;;;;143.78;69.80;;;;;;;2.88;88.01;97261.73;1776535;79;21031;-73
2020/12/31 02:33:37;;;;;;;143.68;66.95;;;;;;;2.88;88.27;97273.23;1776661;80;21174;-73
2020/12/31 02:36:04;;;;;;;135.88;66.80;;;;;;;2.87;88.08;97269.48;1776616;79;21456;-73
2020/12/31 02:38:30;;;;;;;120.65;58.28;;;;;;;2.78;88.61;97262.41;1776540;80;21228;-73
2020/12/31 02:40:56;;;;;;;131.20;61.70;;;;;;;2.77;88.17;97266.14;1776562;79;21105;-73
2020/12/31 02:43:23;;;;;;;129.90;62.53;;;;;;;2.77;88.28;97262.13;1776697;80;21020;-73
2020/12/31 02:45:49;;;;;;;110.88;56.20;;;;;;;2.80;88.04;97264.30;1776704;79;21086;-73
2020/12/31 02:48:15;;;;;;;115.70;55.73;;;;;;;2.83;87.84;97275.87;1776731;80;21197;-73
2020/12/31 02:50:41;;;;;;;118.37;54.85;;;;;;;2.80;88.06;97284.37;1776484;79;21571;-73
2020/12/31 02:53:08;;;;;;;127.97;61.88;;;;;;;2.75;88.10;97291.01;1776641;80;21155;-73
2020/12/31 02:55:34;;;;;;;114.22;55.58;;;;;;;2.71;88.08;97282.65;1776519;79;21059;-73
2020/12/31 02:58:00;;;;;;;107.60;53.63;;;;;;;2.73;89.15;97282.40;1776595;80;21655;-73
2020/12/31 03:00:27;;;;;;;97.05;48.65;;;;;;;2.77;89.54;97278.99;1776547;79;22062;-73
2020/12/31 03:02:53;;;;;;;95.35;45.78;;;;;;;2.86;88.76;97274.55;1776552;80;21027;-73
2020/12/31 03:05:20;;;;;;;106.17;53.75;;;;;;;2.83;88.41;97265.97;1776604;79;21194;-73
2020/12/31 03:07:46;;;;;;;133.60;69.50;;;;;;;2.77;88.28;97260.80;1776641;80;21182;-73
2020/12/31 03:10:12;;;;;;;151.47;71.47;;;;;;;2.75;89.00;97261.58;1776602;79;21067;-73
2020/12/31 03:12:38;;;;;;;148.93;75.30;;;;;;;2.73;89.54;97259.13;1776739;80;21252;-73
2020/12/31 03:15:12;;;;;;;146.45;70.83;;;;;;;2.74;89.27;97267.98;1776444;79;21393;-73
2020/12/31 03:17:39;;;;;;;158.10;77.85;;;;;;;2.70;88.38;97272.20;1776669;80;21110;-73
2020/12/31 03:20:05;;;;;;;144.35;74.90;;;;;;;2.65;88.33;97267.61;1776544;79;21190;-73
2020/12/31 03:22:33;;;;;;;132.43;68.12;;;;;;;2.67;88.72;97256.66;1776591;80;21654;-73
2020/12/31 03:24:59;;;;;;;131.52;65.85;;;;;;;2.70;88.75;97258.30;1776568;79;22121;-73
2020/12/31 03:27:25;;;;;;;143.32;69.72;;;;;;;2.72;89.20;97256.17;1776570;80;21318;-73
2020/12/31 03:29:51;;;;;;;148.53;75.05;;;;;;;2.75;89.30;97254.89;1746427;80;21047;-73
2020/12/31 03:32:18;;;;;;;144.47;73.80;;;;;;;2.79;89.22;97260.81;1776645;79;21126;-73
2020/12/31 03:34:45;;;;;;;142.13;70.28;;;;;;;2.82;88.92;97252.31;1776584;80;21451;-73
2020/12/31 03:37:12;;;;;;;141.05;70.42;;;;;;;2.84;89.28;97265.44;1776514;79;21467;-73
2020/12/31 03:39:38;;;;;;;137.22;70.08;;;;;;;2.86;88.79;97265.19;1776523;80;21079;-73
2020/12/31 03:42:04;;;;;;;149.05;72.85;;;;;;;2.86;88.97;97267.86;1776655;79;21055;-73
2020/12/31 03:44:31;;;;;;;148.02;74.65;;;;;;;2.92;89.00;97269.02;1746195;80;21185;-73
2020/12/31 03:46:57;;;;;;;138.20;70.47;;;;;;;2.92;88.60;97275.71;1776660;79;21547;-73
2020/12/31 03:49:23;;;;;;;140.73;73.60;;;;;;;2.91;88.20;97276.77;1776486;80;22040;-73
2020/12/31 03:51:50;;;;;;;126.87;62.25;;;;;;;2.86;88.20;97278.56;1776633;79;21098;-73
2020/12/31 03:54:16;;;;;;;108.80;55.38;;;;;;;2.87;88.11;97272.95;1776624;80;21193;-73
2020/12/31 03:56:42;;;;;;;121.10;63.05;;;;;;;2.82;87.60;97276.40;1776544;79;21135;-73
2020/12/31 03:59:09;;;;;;;133.18;67.27;;;;;;;2.75;87.60;97281.11;1776639;80;21178;-73
2020/12/31 04:01:35;;;;;;;124.38;65.95;;;;;;;2.75;87.93;97284.32;1766268;79;21171;-73
2020/12/31 04:04:01;;;;;;;130.97;59.55;;;;;;;2.80;88.04;97282.50;1765850;80;21642;-73
2020/12/31 04:06:28;;;;;;;137.80;65.78;;;;;;;2.84;87.95;97284.17;1765880;79;21523;-73
2020/12/31 04:08:55;;;;;;;128.42;60.03;;;;;;;2.80;87.99;97286.52;1765939;80;21110;-73
2020/12/31 04:11:22;;;;;;;120.25;57.65;;;;;;;2.79;88.06;97280.89;1765912;79;21142;-73
2020/12/31 04:13:48;;;;;;;116.67;55.95;;;;;;;2.82;88.24;97287.09;1765981;81;21187;-73
2020/12/31 04:16:14;;;;;;;127.12;63.00;;;;;;;2.79;88.35;97293.45;1765808;79;21500;-73
2020/12/31 04:18:41;;;;;;;136.50;66.70;;;;;;;2.74;88.28;97294.22;1765849;80;21182;-73
2020/12/31 04:21:07;;;;;;;127.70;65.60;;;;;;;2.83;88.57;97293.26;1765897;79;21122;-73
2020/12/31 04:23:33;;;;;;;135.90;69.30;;;;;;;2.90;88.56;97293.05;1765903;81;21635;-73
2020/12/31 04:25:59;;;;;;;129.68;67.25;;;;;;;2.94;88.43;97296.88;1765871;79;21555;-73
2020/12/31 04:28:26;;;;;;;124.38;66.12;;;;;;;2.94;88.22;97290.98;1765777;80;21202;-73
2020/12/31 04:30:52;;;;;;;138.97;71.70;;;;;;;2.94;88.18;97296.88;1765969;79;21035;-73
2020/12/31 04:33:18;;;;;;;130.95;65.10;;;;;;;3.00;88.35;97300.70;1766017;81;21068;-73
2020/12/31 04:35:45;;;;;;;145.20;71.65;;;;;;;3.03;88.12;97302.87;1765897;79;21488;-73
2020/12/31 04:38:11;;;;;;;148.38;73.33;;;;;;;3.02;88.09;97305.28;1765854;81;22072;-73
2020/12/31 04:40:43;;;;;;;142.00;71.65;;;;;;;3.01;87.97;97297.50;1765865;79;21110;-73
2020/12/31 04:43:10;;;;;;;143.02;70.10;;;;;;;2.99;88.17;97293.74;1766019;81;21112;-73
2020/12/31 04:45:38;;;;;;;137.03;69.72;;;;;;;3.01;88.17;97295.63;1765822;79;21552;-73
2020/12/31 04:48:11;;;;;;;154.35;74.10;;;;;;;2.99;88.35;97290.23;1766226;81;21146;-73
2020/12/31 04:50:42;;;;;;;139.72;69.03;;;;;;;2.96;88.77;97284.05;1765868;79;22109;-72
2020/12/31 04:53:09;;;;;;;134.05;66.82;;;;;;;2.93;88.79;97280.53;1765835;81;21103;-73
2020/12/31 04:55:46;;;;;;;135.45;62.33;;;;;;;2.95;88.33;97279.22;1765942;79;21174;-73
2020/12/31 04:58:15;;;;;;;129.72;61.00;;;;;;;3.01;88.34;97283.59;1765809;81;21560;-73
2020/12/31 05:00:43;;;;;;;121.92;63.05;;;;;;;3.00;88.02;97281.16;1764990;79;21563;-73
2020/12/31 05:03:09;;;;;;;130.63;63.80;;;;;;;3.01;88.03;97290.28;1765996;81;21353;-73
2020/12/31 05:05:37;;;;;;;169.05;81.65;;;;;;;2.98;88.07;97292.09;1765896;79;21166;-73
2020/12/31 05:08:04;;;;;;;152.38;75.42;;;;;;;2.92;88.04;97298.99;1765892;81;21122;-73
2020/12/31 05:10:31;;;;;;;126.58;67.97;;;;;;;2.97;88.40;97297.70;1765848;79;21055;-73
2020/12/31 05:13:03;;;;;;;134.32;64.50;;;;;;;3.04;88.50;97301.01;1766001;81;21174;-73
2020/12/31 05:15:42;;;;;;;115.67;51.15;;;;;;;3.06;88.15;97301.03;1765956;79;22013;-73
2020/12/31 05:18:26;;;;;;;105.65;46.35;;;;;;;3.01;88.05;97301.52;1765935;81;21221;-73
2020/12/31 05:20:57;;;;;;;112.80;51.10;;;;;;;2.95;87.97;97303.31;1754292;79;21040;-73
2020/12/31 05:23:29;;;;;;;104.83;47.98;;;;;;;2.99;88.15;97302.27;1766045;81;21119;-73
2020/12/31 05:25:56;;;;;;;106.05;49.30;;;;;;;3.04;88.19;97308.51;1765413;79;21123;-73
2020/12/31 05:28:29;;;;;;;116.17;52.45;;;;;;;3.11;88.22;97302.45;1766083;81;21236;-73
2020/12/31 05:31:11;;;;;;;119.57;58.35;;;;;;;3.17;88.16;97302.52;1765998;79;21587;-73
2020/12/31 05:33:40;;;;;;;103.32;48.45;;;;;;;3.19;88.10;97299.05;1766057;81;21098;-73
2020/12/31 05:36:25;;;;;;;114.00;46.18;;;;;;;3.19;88.23;97296.38;1766032;79;21118;-73
2020/12/31 05:39:01;;;;;;;103.72;44.13;;;;;;;3.27;88.28;97297.28;1766019;81;21547;-73
2020/12/31 05:41:31;;;;;;;101.55;42.43;;;;;;;3.30;88.10;97297.58;1766002;79;21555;-73
2020/12/31 05:44:06;;;;;;;106.47;47.67;;;;;;;3.30;87.84;97300.25;1744188;81;21135;-73
2020/12/31 05:46:35;;;;;;;104.25;46.15;;;;;;;3.25;88.03;97302.08;1744758;81;21048;-73
2020/12/31 05:49:10;;;;;;;105.78;47.25;;;;;;;3.23;87.86;97307.66;1766002;81;21123;-73
2020/12/31 05:51:41;;;;;;;125.85;55.70;;;;;;;3.25;88.11;97310.11;1766137;79;21122;-74
2020/12/31 05:54:09;;;;;;;109.30;50.38;;;;;;;3.29;88.25;97311.22;1766117;80;21190;-72
2020/12/31 05:56:42;;;;;;;106.47;47.65;;;;;;;3.26;88.43;97306.38;1745047;81;21172;-72
2020/12/31 05:59:24;;;;;;;117.25;45.03;;;;;;;3.22;88.40;97299.89;1765696;81;21146;-73
2020/12/31 06:01:57;;;;;;;103.50;41.65;;;;;;;3.20;88.20;97298.00;1744296;81;21059;-72
2020/12/31 06:04:41;;;;;;;87.33;39.05;;;;;;;3.22;87.98;97308.72;1766010;81;21532;-74
2020/12/31 06:07:07;;;;;;;85.50;38.02;;;;;;;3.25;87.92;97311.45;1763700;79;21141;-74
2020/12/31 06:09:35;;;;;;;85.00;35.98;;;;;;;3.23;87.91;97309.00;1765961;80;21174;-72
2020/12/31 06:12:08;;;;;;;83.47;38.70;;;;;;;3.28;87.94;97312.28;1766135;79;21579;-72
2020/12/31 06:14:39;;;;;;;131.18;60.30;;;;;;;3.31;87.80;97314.45;1744459;81;21773;-74
2020/12/31 06:17:06;;;;;;;91.12;41.15;;;;;;;3.30;88.40;97319.00;1765926;79;21161;-72
2020/12/31 06:19:40;;;;;;;99.55;63.45;;;;;;;3.24;88.30;97313.30;1765940;81;21202;-72
2020/12/31 06:22:08;;;;;;;89.17;39.53;;;;;;;3.18;88.96;97318.33;1765953;79;21083;-73
2020/12/31 06:24:40;;;;;;;89.67;38.70;;;;;;;3.18;88.61;97318.86;1766324;81;21139;-73
2020/12/31 06:27:10;;;;;;;93.58;38.88;;;;;;;3.18;88.11;97324.22;1765890;80;21548;-73
2020/12/31 06:29:49;;;;;;;92.37;39.85;;;;;;;3.22;88.50;97328.00;1766015;81;21147;-73
2020/12/31 06:35:06;;;;;;;108.00;48.98;;;;;;;3.32;88.38;97324.91;1800444;78;22630;-72
2020/12/31 06:37:32;;;;;;;114.20;48.40;;;;;;;3.24;88.49;97324.53;1745512;82;21114;-74
2020/12/31 06:40:25;;;;;;;122.85;58.83;;;;;;;3.23;88.29;97326.41;1745434;80;21201;-74
2020/12/31 06:43:14;;;;;;;105.60;46.53;;;;;;;3.24;88.03;97321.33;1745350;82;21103;-73
2020/12/31 06:45:42;;;;;;;89.40;37.73;;;;;;;3.25;87.86;97321.63;1745666;80;21631;-73
2020/12/31 06:48:32;;;;;;;80.15;34.70;;;;;;;3.25;87.76;97316.28;1745571;82;20908;-73
2020/12/31 06:51:06;;;;;;;110.75;59.60;;;;;;;3.22;87.62;97325.32;1745430;80;21642;-73
2020/12/31 06:53:48;;;;;;;104.67;51.83;;;;;;;3.21;88.07;97325.85;1889941;76;22521;-72
2020/12/31 06:56:15;;;;;;;84.65;43.68;;;;;;;3.13;87.98;97326.28;1842881;77;21098;-74
2020/12/31 06:58:42;;;;;;;73.17;37.35;;;;;;;3.14;87.96;97322.55;1795279;78;21155;-74
2020/12/31 07:01:28;;;;;;;70.60;35.20;;;;;;;3.17;87.96;97326.08;1826894;77;21062;-74
2020/12/31 07:03:56;;;;;;;77.65;36.38;;;;;;;3.19;87.97;97326.64;1827011;78;21593;-72
2020/12/31 07:06:26;;;;;;;67.63;33.53;;;;;;;3.19;88.08;97323.16;1826390;77;21309;-73
2020/12/31 07:08:54;;;;;;;75.47;36.55;;;;;;;3.18;87.84;97325.02;1826980;78;21125;-74
2020/12/31 07:11:40;;;;;;;92.87;55.00;;;;;;;3.16;87.70;97327.65;1827156;77;21252;-73
2020/12/31 07:14:22;;;;;;;76.75;40.45;;;;;;;3.09;87.78;97328.66;1826915;78;21566;-73
2020/12/31 07:16:58;;;;;;;85.40;39.73;;;;;;;3.11;87.89;97339.92;1827114;77;21058;-73
2020/12/31 07:19:38;;;;;;;69.32;33.23;;;;;;;3.09;88.00;97337.22;1827013;78;21122;-74
2020/12/31 07:22:15;;;;;;;72.03;34.48;;;;;;;3.04;88.02;97340.63;1826980;77;21100;-72
2020/12/31 07:25:03;;;;;;;78.85;33.28;;;;;;;3.05;87.93;97340.09;1827100;78;21204;-73
2020/12/31 07:27:37;;;;;;;74.90;36.30;;;;;;;3.00;88.72;97331.48;1826976;78;21058;-73
2020/12/31 07:30:15;;;;;;;106.97;56.58;;;;;;;2.97;88.58;97336.51;1827067;77;21141;-73
2020/12/31 07:35:49;;;;;;;74.07;40.15;;;;;;;3.00;88.90;97339.52;1879696;76;22517;-72
2020/12/31 07:38:18;;;;;;;74.05;35.23;;;;;;;2.86;89.85;97345.47;1826857;78;21154;-73
2020/12/31 07:43:30;;;;;;;70.20;32.98;;;;;;;2.91;89.53;97344.21;1889918;76;22563;-72
2020/12/31 07:46:01;;;;;;;73.60;31.37;;;;;;;2.89;88.99;97351.66;1857732;77;20881;-73
2020/12/31 07:48:28;;;;;;;;;;;;;;;2.91;88.72;97354.39;1856597;77;21531;-73
2020/12/31 07:51:01;;;;;;;54.25;22.87;;;;;;;2.80;89.63;97349.39;1853811;77;20155;-73
2020/12/31 07:53:29;;;;;;;48.08;24.47;;;;;;;2.77;88.91;97350.42;1852078;77;21587;-74
2020/12/31 07:55:55;;;;;;;48.42;23.38;;;;;;;2.76;88.48;97351.48;1853826;77;21074;-74
2020/12/31 07:58:29;;;;;;;49.90;22.35;;;;;;;2.76;88.36;97348.81;1853797;77;21088;-74
2020/12/31 08:01:03;;;;;;;51.30;22.42;;;;;;;2.72;88.72;97354.35;1853853;77;21258;-72
2020/12/31 08:03:30;;;;;;;52.78;24.87;;;;;;;2.78;88.31;97353.38;1853787;77;21562;-73
2020/12/31 08:05:57;;;;;;;61.98;25.02;;;;;;;2.78;88.43;97356.05;1853891;77;21456;-73
2020/12/31 08:08:24;;;;;;;57.58;27.90;;;;;;;2.85;88.35;97356.70;1853699;77;21099;-73
2020/12/31 08:10:51;;;;;;;60.88;25.95;;;;;;;2.95;88.32;97356.03;1853900;77;21122;-73
2020/12/31 08:13:17;;;;;;;54.80;25.35;;;;;;;3.01;88.20;97354.52;1853809;77;21464;-73
2020/12/31 08:15:52;;;;;;;51.50;24.05;;;;;;;3.08;88.12;97355.16;1853669;77;21082;-73
2020/12/31 08:18:20;;;;;;;127.10;32.83;;;;;;;3.17;88.18;97356.87;1853702;77;21032;-72
2020/12/31 08:20:48;;;;;;;74.62;27.10;;;;;;;3.25;88.14;97359.13;1853741;77;21020;-72
2020/12/31 08:23:21;;;;;;;57.83;26.82;;;;;;;3.31;88.02;97359.97;1853774;77;21220;-72
2020/12/31 08:25:48;;;;;;;54.83;26.10;;;;;;;3.31;87.76;97365.33;1851519;77;21187;-74
2020/12/31 08:28:20;;;;;;;56.33;26.93;;;;;;;3.24;87.54;97368.72;1820798;77;21162;-74
2020/12/31 08:30:47;;;;;;;64.17;28.05;;;;;;;3.18;87.54;97363.04;1821610;77;21461;-72
2020/12/31 08:33:13;;;;;;;57.23;24.45;;;;;;;3.19;87.62;97368.67;1853708;77;21099;-72
2020/12/31 08:35:44;;;;;;;62.55;31.05;;;;;;;3.21;87.26;97370.56;1853806;77;21079;-72
2020/12/31 08:38:20;;;;;;;62.38;29.72;;;;;;;3.17;87.37;97374.80;1853658;77;21129;-73
2020/12/31 08:40:49;;;;;;;48.28;24.35;;;;;;;3.17;87.28;97374.80;1853710;77;21028;-73
2020/12/31 08:43:38;;;;;;;54.00;25.40;;;;;;;3.17;87.24;97383.65;1753732;80;21126;-73
2020/12/31 08:46:08;;;;;;;54.27;24.77;;;;;;;3.22;87.37;97382.89;1788009;80;21538;-74
2020/12/31 08:48:37;;;;;;;65.60;31.45;;;;;;;3.28;87.39;97385.39;1784518;80;23940;-74
2020/12/31 08:51:14;;;;;;;59.18;30.70;;;;;;;3.32;87.38;97387.84;1788121;80;21229;-72
2020/12/31 08:53:54;;;;;;;64.40;26.20;;;;;;;3.39;87.49;97389.81;1784007;80;21667;-73
2020/12/31 08:56:23;;;;;;;54.70;24.25;;;;;;;3.46;87.39;97388.30;1784120;80;21217;-73
2020/12/31 08:58:49;;;;;;;61.42;25.72;;;;;;;3.51;87.41;97386.22;1783351;80;21648;-74
2020/12/31 09:01:27;;;;;;;53.10;22.80;;;;;;;3.54;87.27;97396.42;1787462;80;21043;-74
2020/12/31 09:04:09;;;;;;;51.37;25.25;;;;;;;3.45;86.96;97392.03;1783907;80;21311;-72
2020/12/31 09:06:42;;;;;;;55.08;27.60;;;;;;;3.44;86.92;97393.09;1786637;80;21066;-73
2020/12/31 09:09:28;;;;;;;59.42;26.35;;;;;;;3.40;86.92;97386.60;1783295;80;21558;-73
2020/12/31 09:12:06;;;;;;;59.08;26.23;;;;;;;3.42;86.91;97385.01;1787300;80;21079;-74
2020/12/31 09:14:35;;;;;;;50.65;24.52;;;;;;;3.41;86.83;97390.89;1783910;80;21107;-72
2020/12/31 09:17:03;;;;;;;55.67;23.87;;;;;;;3.35;86.68;97383.34;1787656;80;21376;-73
2020/12/31 09:19:29;;;;;;;60.77;27.03;;;;;;;3.30;86.62;97385.95;1779296;80;21743;-73
2020/12/31 09:21:56;;;;;;;51.05;23.83;;;;;;;3.36;86.75;97388.98;1787256;80;21445;-73
2020/12/31 09:24:23;;;;;;;52.45;27.45;;;;;;;3.38;86.73;97382.84;1783913;80;21433;-73
2020/12/31 09:26:58;;;;;;;59.67;29.80;;;;;;;3.40;86.82;97379.91;1787443;80;21000;-73
2020/12/31 09:29:25;;;;;;;111.57;62.65;;;;;;;3.40;86.98;97382.58;1783357;80;21400;-73
2020/12/31 09:31:52;;;;;;;102.38;56.15;;;;;;;3.43;86.89;97374.07;1787276;80;21102;-72
2020/12/31 09:34:19;;;;;;;124.42;80.42;;;;;;;3.47;86.95;97365.80;1783764;80;21574;-73
2020/12/31 09:36:45;;;;;;;66.37;37.48;;;;;;;3.47;86.70;97372.50;1787437;80;21098;-73
2020/12/31 09:39:11;;;;;;;83.20;51.90;;;;;;;3.31;86.57;97372.84;1783853;80;21176;-72
2020/12/31 09:41:38;;;;;;;63.52;31.75;;;;;;;3.32;86.85;97374.98;1787378;80;21263;-72
2020/12/31 09:44:04;;;;;;;61.85;28.27;;;;;;;3.16;87.15;97367.27;1783749;80;21175;-72
2020/12/31 09:46:31;;;;;;;61.35;29.57;;;;;;;3.08;87.47;97370.41;1756572;80;21638;-72
2020/12/31 09:48:57;;;;;;;55.48;27.07;;;;;;;2.96;88.17;97368.34;1783757;80;21031;-73
2020/12/31 09:51:23;;;;;;;59.65;28.83;;;;;;;2.84;88.41;97357.77;1787490;80;21114;-73
2020/12/31 09:53:50;;;;;;;60.28;28.17;;;;;;;2.96;88.03;97365.14;1783928;80;21202;-73
2020/12/31 09:56:18;;;;;;;51.08;24.92;;;;;;;3.01;88.10;97357.20;1787400;80;21055;-72
2020/12/31 09:58:44;;;;;;;56.05;26.60;;;;;;;3.05;87.78;97359.64;1783696;80;21594;-72
2020/12/31 10:01:10;;;;;;;51.25;25.12;;;;;;;3.01;88.10;97354.52;1787421;80;21469;-72
2020/12/31 10:03:37;;;;;;;52.48;25.95;;;;;;;3.07;87.62;97360.73;1783664;80;21031;-72
2020/12/31 10:06:06;;;;;;;51.63;26.50;;;;;;;3.01;87.98;97356.39;1756591;80;21209;-73
2020/12/31 10:08:33;;;;;;;50.05;25.32;;;;;;;3.00;88.12;97352.09;1783736;80;21158;-73
2020/12/31 10:11:00;;;;;;;57.45;29.05;;;;;;;3.13;87.79;97357.60;1787286;80;21154;-73
2020/12/31 10:13:28;;;;;;;52.53;28.60;;;;;;;3.22;87.70;97352.09;1783746;80;21472;-73
2020/12/31 10:15:56;;;;;;;46.10;25.37;;;;;;;3.30;87.38;97355.68;1787383;80;21163;-73
2020/12/31 10:18:22;;;;;;;54.00;25.90;;;;;;;3.26;87.06;97349.22;1753617;80;21212;-73
2020/12/31 10:20:49;;;;;;;49.20;25.00;;;;;;;3.27;87.12;97353.52;1787367;80;21030;-72
2020/12/31 10:23:15;;;;;;;63.17;31.52;;;;;;;3.12;87.08;97348.77;1783720;80;21129;-73
2020/12/31 10:25:41;;;;;;;55.50;27.25;;;;;;;3.20;87.15;97350.20;1787423;80;21154;-73
2020/12/31 10:28:08;;;;;;;55.70;29.98;;;;;;;3.14;87.08;97351.19;1783799;80;21047;-73
2020/12/31 10:30:34;;;;;;;64.53;31.52;;;;;;;3.15;86.94;97345.58;1787383;80;21535;-73
2020/12/31 10:33:01;;;;;;;55.70;29.05;;;;;;;3.13;86.93;97343.69;1783629;80;21713;-73
2020/12/31 10:35:27;;;;;;;42.90;23.65;;;;;;;3.12;86.73;97344.75;1787297;80;21468;-73
2020/12/31 10:37:53;;;;;;;46.53;22.62;;;;;;;3.07;86.73;97347.34;1783800;80;21126;-73
2020/12/31 10:40:20;;;;;;;49.20;28.23;;;;;;;3.09;86.60;97347.93;1787373;80;21194;-73
2020/12/31 10:45:22;;;;;;;45.55;29.18;;;;;;;3.17;86.48;97344.02;1879572;74;28305;-72
2020/12/31 10:47:49;;;;;;;40.58;24.20;;;;;;;3.28;85.92;97343.89;1817876;79;21189;-72
2020/12/31 10:50:15;;;;;;;47.15;26.25;;;;;;;3.06;85.63;97339.04;1821424;78;21657;-72
2020/12/31 10:52:42;;;;;;;51.88;26.12;;;;;;;3.02;85.78;97332.05;1817648;79;21622;-72
2020/12/31 10:55:08;;;;;;;45.98;24.00;;;;;;;2.94;85.97;97334.34;1821483;78;21114;-72
2020/12/31 10:57:34;;;;;;;55.52;26.93;;;;;;;2.99;86.21;97326.36;1817824;78;21059;-72
2020/12/31 11:00:01;;;;;;;66.07;35.08;;;;;;;3.05;86.23;97324.84;1821507;78;21107;-72
2020/12/31 11:02:27;;;;;;;51.35;27.22;;;;;;;3.12;86.25;97321.99;1817797;79;21657;-72
2020/12/31 11:04:53;;;;;;;45.50;25.90;;;;;;;3.18;86.29;97319.67;1821367;78;21493;-72
2020/12/31 11:07:20;;;;;;;53.10;27.62;;;;;;;3.24;86.08;97313.30;1817794;79;21162;-72
2020/12/31 11:09:46;;;;;;;45.33;24.55;;;;;;;3.29;86.09;97308.55;1821378;78;21550;-72
2020/12/31 11:12:13;;;;;;;36.68;19.77;;;;;;;3.29;85.87;97309.34;1817754;79;21035;-72
2020/12/31 11:14:39;;;;;;;39.90;20.55;;;;;;;3.35;85.83;97309.70;1821438;78;21196;-72
2020/12/31 11:17:05;;;;;;;42.90;22.22;;;;;;;3.36;85.48;97306.48;1817644;79;21559;-72
2020/12/31 11:19:32;;;;;;;48.98;23.57;;;;;;;3.34;85.44;97301.92;1821463;78;21047;-72
2020/12/31 11:21:58;;;;;;;43.50;23.02;;;;;;;3.34;85.43;97308.08;1817755;79;21118;-72
2020/12/31 11:24:25;;;;;;;44.08;23.83;;;;;;;3.32;85.53;97302.67;1821360;78;21610;-72
2020/12/31 11:26:51;;;;;;;51.25;25.55;;;;;;;3.19;85.23;97297.72;1817786;79;22072;-72
2020/12/31 11:29:17;;;;;;;53.85;25.43;;;;;;;3.20;85.50;97298.00;1821431;78;21147;-72
2020/12/31 11:31:44;;;;;;;49.48;26.05;;;;;;;3.23;85.61;97293.47;1817711;79;21110;-72
2020/12/31 11:34:10;;;;;;;65.20;33.18;;;;;;;3.27;85.68;97286.57;1821388;78;21524;-72
2020/12/31 11:36:36;;;;;;;67.32;31.87;;;;;;;3.25;85.52;97287.36;1817654;79;21571;-72
2020/12/31 11:39:03;;;;;;;68.90;35.60;;;;;;;3.27;85.45;97282.55;1821349;78;21455;-72